Time;durP1;ratioP1;P1;durP2;ratioP2;P2;SDS_P1;SDS_P2;PMS_P1;PMS_P2;Temp;Humidity;BMP_temperature;BMP_pressure;BME280_temperature;BME280_humidity;BME280_pressure;Samples;Min_cycle;Max_cycle;Signal;HPM_P1;HPM_P2
2022/08/22 00:01:01;;;;;;;68.80;3.70;;;20.80;16.00;;;;;;5064694;28;20445;-82
2022/08/22 00:04:03;;;;;;;67.37;4.17;;;20.80;16.00;;;;;;5033708;28;20410;-83
2022/08/22 00:06:48;;;;;;;66.07;3.63;;;20.70;16.40;;;;;;5068227;28;20779;-83
2022/08/22 00:09:32;;;;;;;70.13;4.07;;;20.70;16.90;;;;;;5064566;28;20442;-83
2022/08/22 00:12:16;;;;;;;68.47;4.07;;;20.70;16.70;;;;;;5046422;28;20400;-83
2022/08/22 00:15:04;;;;;;;69.53;4.70;;;20.70;17.10;;;;;;5068307;28;20403;-83
2022/08/22 00:17:35;;;;;;;69.80;4.40;;;20.60;18.10;;;;;;5046336;28;20864;-83
2022/08/22 00:20:25;;;;;;;67.67;4.30;;;20.60;17.60;;;;;;5064374;28;20457;-83
2022/08/22 00:22:54;;;;;;;71.17;5.10;;;20.60;19.00;;;;;;5065124;28;20380;-83
2022/08/22 00:25:31;;;;;;;68.87;4.20;;;20.60;19.60;;;;;;5068295;28;20786;-83
2022/08/22 00:28:06;;;;;;;67.10;4.07;;;20.50;20.80;;;;;;5068426;28;20420;-83
2022/08/22 00:30:43;;;;;;;73.40;4.47;;;20.50;20.80;;;;;;5050373;28;20463;-83
2022/08/22 00:33:31;;;;;;;68.60;4.50;;;20.40;22.70;;;;;;5067513;28;20438;-83
2022/08/22 00:36:29;;;;;;;67.83;3.53;;;20.50;22.90;;;;;;5068262;28;20500;-83
2022/08/22 00:39:11;;;;;;;66.80;3.87;;;20.50;22.70;;;;;;5065212;28;20501;-83
2022/08/22 00:41:49;;;;;;;68.10;4.80;;;20.40;23.00;;;;;;5066808;28;20418;-83
2022/08/22 00:44:39;;;;;;;70.10;4.00;;;20.40;23.00;;;;;;5064005;28;20404;-83
2022/08/22 00:47:04;;;;;;;69.73;4.30;;;20.40;23.70;;;;;;5063567;28;20424;-83
2022/08/22 00:49:48;;;;;;;69.07;6.50;;;20.30;24.40;;;;;;5062724;28;20558;-83
2022/08/22 00:52:32;;;;;;;67.60;4.70;;;20.30;24.80;;;;;;5063253;28;20188;-83
2022/08/22 00:55:18;;;;;;;67.97;4.50;;;20.20;26.00;;;;;;5063379;28;20380;-83
2022/08/22 00:58:11;;;;;;;69.10;4.60;;;20.20;27.20;;;;;;5064370;28;20415;-83
2022/08/22 01:00:49;;;;;;;67.50;4.40;;;20.10;28.20;;;;;;5064521;28;20388;-83
2022/08/22 01:03:39;;;;;;;68.97;4.30;;;20.20;27.80;;;;;;5064273;28;20567;-83
2022/08/22 01:06:18;;;;;;;68.40;5.27;;;20.10;29.10;;;;;;5045435;28;20398;-83
2022/08/22 01:08:53;;;;;;;74.27;4.60;;;20.10;29.50;;;;;;5062501;28;20498;-83
2022/08/22 01:11:43;;;;;;;69.00;4.90;;;20.10;29.50;;;;;;5063549;28;20394;-83
2022/08/22 01:14:35;;;;;;;70.17;4.23;;;20.10;28.90;;;;;;5049590;28;20408;-83
2022/08/22 01:17:03;;;;;;;68.00;4.90;;;20.10;29.90;;;;;;5063208;28;20457;-83
2022/08/22 01:19:57;;;;;;;66.97;4.57;;;20.00;29.90;;;;;;5063167;28;20433;-83
2022/08/22 01:22:59;;;;;;;68.90;4.63;;;20.00;31.80;;;;;;5063551;28;20434;-83
2022/08/22 01:25:43;;;;;;;67.43;4.63;;;19.90;32.50;;;;;;5064135;28;20416;-83
2022/08/22 01:28:17;;;;;;;67.27;4.53;;;19.90;32.50;;;;;;5045987;28;20501;-83
2022/08/22 01:31:22;;;;;;;70.30;5.63;;;19.90;32.20;;;;;;5062488;28;20436;-83
2022/08/22 01:34:15;;;;;;;69.37;5.40;;;19.90;32.50;;;;;;5063076;28;20422;-83
2022/08/22 01:37:23;;;;;;;72.20;4.67;;;19.90;32.40;;;;;;5062648;28;20411;-83
2022/08/22 01:39:54;;;;;;;67.97;5.00;;;19.80;31.90;;;;;;5063270;28;20398;-83
2022/08/22 01:42:26;;;;;;;72.97;5.63;;;19.80;31.50;;;;;;5062734;28;20416;-83
2022/08/22 01:45:12;;;;;;;68.90;5.10;;;19.80;31.30;;;;;;5062458;28;20391;-83
2022/08/22 01:48:02;;;;;;;70.30;5.30;;;19.80;32.30;;;;;;5062968;28;20427;-83
2022/08/22 01:50:48;;;;;;;69.30;5.30;;;19.80;32.50;;;;;;5067482;28;20391;-83
2022/08/22 01:53:37;;;;;;;69.73;6.53;;;19.70;33.20;;;;;;5067253;28;20901;-83
2022/08/22 01:56:13;;;;;;;71.93;5.80;;;19.60;33.90;;;;;;5063005;28;20387;-83
2022/08/22 01:58:58;;;;;;;68.03;6.17;;;19.60;36.30;;;;;;5062940;28;20463;-83
2022/08/22 02:01:32;;;;;;;69.70;6.57;;;19.50;36.60;;;;;;5067187;28;20377;-83
2022/08/22 02:04:04;;;;;;;69.27;7.57;;;19.50;37.70;;;;;;5067007;28;20371;-83
2022/08/22 02:06:44;;;;;;;68.90;7.10;;;19.50;38.60;;;;;;5066486;28;20505;-83
2022/08/22 02:09:31;;;;;;;68.87;6.50;;;19.50;39.20;;;;;;5067394;28;20960;-84
2022/08/22 02:12:32;;;;;;;69.67;9.47;;;19.50;39.90;;;;;;5068275;28;20403;-83
2022/08/22 02:15:19;;;;;;;69.47;9.60;;;19.40;42.70;;;;;;5066181;28;20426;-84
2022/08/22 02:18:01;;;;;;;71.10;9.57;;;19.50;43.70;;;;;;5063111;28;20423;-83
2022/08/22 02:20:26;;;;;;;69.40;8.80;;;19.50;44.60;;;;;;5062994;28;20384;-83
2022/08/22 02:22:56;;;;;;;68.57;9.83;;;19.50;44.50;;;;;;5062266;28;20410;-83
2022/08/22 02:25:45;;;;;;;68.67;9.20;;;19.50;44.90;;;;;;5062605;28;20232;-83
2022/08/22 02:28:28;;;;;;;70.27;9.57;;;19.50;45.10;;;;;;5063245;28;20473;-83
2022/08/22 02:30:59;;;;;;;68.37;9.10;;;19.40;47.00;;;;;;5062254;28;20406;-83
2022/08/22 02:33:55;;;;;;;70.57;10.53;;;19.30;47.80;;;;;;5062514;28;20427;-83
2022/08/22 02:36:31;;;;;;;75.70;11.27;;;19.30;49.60;;;;;;5065373;28;20801;-83
2022/08/22 02:38:56;;;;;;;70.97;9.70;;;19.40;49.50;;;;;;5066793;28;20391;-83
2022/08/22 02:41:31;;;;;;;69.23;10.20;;;19.30;50.00;;;;;;5066787;28;20407;-84
2022/08/22 02:44:26;;;;;;;69.77;10.60;;;19.30;50.40;;;;;;5065898;28;20239;-83
2022/08/22 02:47:01;;;;;;;71.50;10.60;;;19.30;50.80;;;;;;5047025;28;20432;-83
2022/08/22 02:49:42;;;;;;;71.67;11.90;;;19.30;50.90;;;;;;5047095;28;20487;-83
2022/08/22 02:52:17;;;;;;;70.23;11.40;;;19.30;51.60;;;;;;5065838;28;20417;-84
2022/08/22 02:55:07;;;;;;;68.00;10.50;;;19.20;52.80;;;;;;5066276;28;20375;-83
2022/08/22 02:57:46;;;;;;;69.63;11.90;;;19.10;55.50;;;;;;5065925;28;20423;-83
2022/08/22 03:00:22;;;;;;;73.87;10.70;;;19.10;56.30;;;;;;5065625;28;20380;-83
2022/08/22 03:03:22;;;;;;;70.07;10.30;;;19.10;57.10;;;;;;5065324;28;20399;-83
2022/08/22 03:06:02;;;;;;;70.33;10.50;;;19.10;58.40;;;;;;5061552;28;20421;-83
2022/08/22 03:08:27;;;;;;;71.33;10.60;;;19.00;61.40;;;;;;5065480;28;20436;-84
2022/08/22 03:10:58;;;;;;;72.00;11.30;;;19.10;62.60;;;;;;5065043;28;20477;-83
2022/08/22 03:13:39;;;;;;;71.17;10.93;;;19.00;61.70;;;;;;5048474;28;20154;-84
2022/08/22 03:16:32;;;;;;;68.60;9.73;;;19.00;62.40;;;;;;5048091;28;20411;-83
2022/08/22 03:19:02;;;;;;;70.87;10.10;;;19.00;64.20;;;;;;5063529;28;20386;-83
2022/08/22 03:21:39;;;;;;;69.70;10.17;;;19.00;66.30;;;;;;5051689;28;20906;-83
2022/08/22 03:24:13;;;;;;;70.00;10.93;;;19.00;67.00;;;;;;5069215;28;20970;-83
2022/08/22 03:27:00;;;;;;;70.30;10.03;;;18.90;71.30;;;;;;5051596;28;20427;-83
2022/08/22 03:29:35;;;;;;;71.40;10.80;;;18.80;71.40;;;;;;5069419;28;20497;-83
2022/08/22 03:32:17;;;;;;;68.87;11.80;;;18.80;71.30;;;;;;5153128;22;20419;-88
2022/08/22 03:35:01;;;;;;;67.67;10.33;;;18.80;69.70;;;;;;5062220;28;20440;-84
2022/08/22 03:37:36;;;;;;;73.07;12.17;;;18.80;70.90;;;;;;5045114;28;20441;-85
2022/08/22 03:40:20;;;;;;;68.10;10.10;;;18.80;72.20;;;;;;5044966;28;20413;-85
2022/08/22 03:43:19;;;;;;;67.40;10.20;;;18.80;70.70;;;;;;5062877;28;20386;-84
2022/08/22 03:46:16;;;;;;;68.40;10.43;;;18.70;72.30;;;;;;5063821;28;20415;-86
2022/08/22 03:49:03;;;;;;;74.30;10.80;;;18.70;73.90;;;;;;5063575;28;20458;-84
2022/08/22 03:51:29;;;;;;;69.00;11.63;;;18.70;73.40;;;;;;5048646;28;20411;-84
2022/08/22 03:54:16;;;;;;;70.40;10.73;;;18.70;71.00;;;;;;5048299;28;20778;-84
2022/08/22 03:57:19;;;;;;;68.87;10.13;;;18.70;72.30;;;;;;5066052;28;20188;-85
2022/08/22 03:59:48;;;;;;;68.77;9.23;;;18.70;72.20;;;;;;5048199;28;20403;-84
2022/08/22 04:02:51;;;;;;;71.17;11.40;;;18.60;74.20;;;;;;5066003;28;20921;-84
2022/08/22 04:05:35;;;;;;;67.90;10.57;;;18.60;75.00;;;;;;5066422;28;20912;-84
2022/08/22 04:08:10;;;;;;;66.97;9.93;;;18.60;75.70;;;;;;5065000;28;20419;-84
2022/08/22 04:11:21;;;;;;;70.10;10.83;;;18.60;77.50;;;;;;5048262;28;20399;-84
2022/08/22 04:14:24;;;;;;;69.13;11.87;;;18.50;78.70;;;;;;5049278;28;20462;-84
2022/08/22 04:17:26;;;;;;;69.70;10.07;;;18.50;81.80;;;;;;5064657;28;20419;-84
2022/08/22 04:20:15;;;;;;;67.40;10.70;;;18.40;83.80;;;;;;5064683;28;20394;-84
2022/08/22 04:23:13;;;;;;;71.40;10.90;;;18.50;80.30;;;;;;5063775;28;20395;-84
2022/08/22 04:25:46;;;;;;;73.67;11.30;;;18.50;82.50;;;;;;5045365;28;20847;-84
2022/08/22 04:28:18;;;;;;;70.60;14.20;;;18.50;83.50;;;;;;5062676;28;20431;-84
2022/08/22 04:30:48;;;;;;;71.47;12.90;;;18.40;84.40;;;;;;5043572;28;20413;-86
2022/08/22 04:33:25;;;;;;;70.70;12.67;;;18.50;83.40;;;;;;5062298;28;20423;-84
2022/08/22 04:36:21;;;;;;;68.70;11.87;;;18.40;84.30;;;;;;5044619;28;20438;-85
2022/08/22 04:39:01;;;;;;;71.63;14.10;;;18.40;85.70;;;;;;5061500;28;20392;-85
2022/08/22 04:42:01;;;;;;;72.70;13.20;;;18.40;85.00;;;;;;5061905;28;20383;-84
2022/08/22 04:44:50;;;;;;;71.20;12.10;;;18.40;84.10;;;;;;5044060;28;20957;-84
2022/08/22 04:47:42;;;;;;;70.70;12.90;;;18.40;85.50;;;;;;5062076;28;20430;-86
2022/08/22 04:50:24;;;;;;;72.83;12.17;;;18.40;85.60;;;;;;5056549;28;21035;-84
2022/08/22 04:53:02;;;;;;;70.77;13.60;;;18.40;86.20;;;;;;5043759;28;20447;-84
2022/08/22 04:55:57;;;;;;;71.80;14.90;;;18.40;87.30;;;;;;5061802;28;20391;-84
2022/08/22 04:58:40;;;;;;;70.00;14.87;;;18.40;89.20;;;;;;5043355;28;20433;-85
2022/08/22 05:01:06;;;;;;;74.07;17.80;;;18.50;86.80;;;;;;5062082;28;20394;-84
2022/08/22 05:03:42;;;;;;;72.00;17.40;;;18.50;86.50;;;;;;5252942;22;20777;-85
2022/08/22 05:06:10;;;;;;;74.70;17.83;;;18.60;86.90;;;;;;5081229;28;20196;-85
2022/08/22 05:08:38;;;;;;;71.20;16.80;;;18.60;89.10;;;;;;5081194;28;20843;-85
2022/08/22 05:11:07;;;;;;;75.33;18.40;;;18.60;91.10;;;;;;5080730;28;20403;-85
2022/08/22 05:13:47;;;;;;;72.40;17.40;;;18.60;90.70;;;;;;5062942;28;20516;-84
2022/08/22 05:16:22;;;;;;;71.60;18.30;;;18.70;90.90;;;;;;5063234;28;20944;-85
2022/08/22 05:19:18;;;;;;;72.17;18.20;;;18.70;91.60;;;;;;5080057;28;20385;-83
2022/08/22 05:21:46;;;;;;;70.30;18.13;;;18.70;93.00;;;;;;5078687;28;20383;-83
2022/08/22 05:24:39;;;;;;;77.10;23.77;;;18.70;93.30;;;;;;5078471;28;20407;-84
2022/08/22 05:27:21;;;;;;;72.60;17.97;;;18.70;93.70;;;;;;5065289;28;20429;-84
2022/08/22 05:29:52;;;;;;;73.00;22.93;;;18.70;94.00;;;;;;5084453;28;20445;-84
2022/08/22 05:32:25;;;;;;;75.07;24.10;;;18.80;94.70;;;;;;5084078;28;20461;-84
2022/08/22 05:34:57;;;;;;;74.00;21.10;;;18.80;95.10;;;;;;5083570;28;20374;-84
2022/08/22 05:37:52;;;;;;;74.00;19.80;;;18.80;95.20;;;;;;5084086;28;20410;-84
2022/08/22 05:40:26;;;;;;;74.63;22.47;;;18.90;94.50;;;;;;5081964;28;20421;-84
2022/08/22 05:42:54;;;;;;;74.30;25.03;;;18.80;97.80;;;;;;5065400;28;20395;-84
2022/08/22 05:45:21;;;;;;;73.07;18.87;;;18.80;96.60;;;;;;5083517;28;20398;-84
2022/08/22 05:48:12;;;;;;;74.87;20.00;;;18.90;96.60;;;;;;5083561;28;20939;-84
2022/08/22 05:50:44;;;;;;;73.77;21.00;;;18.90;96.50;;;;;;5082028;28;20399;-84
2022/08/22 05:53:29;;;;;;;71.77;19.43;;;18.90;97.00;;;;;;5082459;28;20436;-85
2022/08/22 05:56:11;;;;;;;76.90;18.00;;;19.00;96.70;;;;;;5061229;28;20411;-83
2022/08/22 05:58:42;;;;;;;69.87;14.30;;;19.00;96.80;;;;;;5080022;28;20383;-84
2022/08/22 06:01:23;;;;;;;71.30;16.57;;;19.10;95.20;;;;;;5079331;28;20390;-83
2022/08/22 06:04:23;;;;;;;71.57;12.77;;;19.10;95.60;;;;;;5078782;28;20441;-83
2022/08/22 06:07:05;;;;;;;70.50;14.53;;;19.10;93.70;;;;;;5046709;28;20428;-83
2022/08/22 06:09:34;;;;;;;68.13;9.27;;;19.10;93.50;;;;;;5061141;28;20995;-83
2022/08/22 06:12:41;;;;;;;70.33;9.30;;;19.20;92.30;;;;;;5060855;28;20400;-83
2022/08/22 06:15:17;;;;;;;68.67;9.50;;;19.30;91.10;;;;;;5052876;28;20411;-83
2022/08/22 06:17:55;;;;;;;71.40;9.23;;;19.30;91.70;;;;;;5060696;28;20429;-83
2022/08/22 06:20:31;;;;;;;68.00;8.00;;;19.40;90.40;;;;;;5079657;28;20379;-85
2022/08/22 06:23:01;;;;;;;72.57;8.20;;;19.50;84.40;;;;;;5080477;28;20374;-85
2022/08/22 06:25:38;;;;;;;69.13;8.00;;;19.60;84.10;;;;;;5079980;28;20421;-85
2022/08/22 06:28:08;;;;;;;68.87;7.63;;;19.60;81.10;;;;;;5061872;28;20436;-85
2022/08/22 06:30:37;;;;;;;71.20;8.37;;;19.50;74.40;;;;;;5061725;28;20436;-85
2022/08/22 06:33:08;;;;;;;69.97;7.90;;;19.50;76.50;;;;;;5061493;28;20474;-85
2022/08/22 06:38:52;;;;;;;69.13;7.60;;;19.70;76.40;;;;;;5080740;28;20407;-85
2022/08/22 06:41:21;;;;;;;69.70;7.03;;;19.80;75.30;;;;;;5062271;28;20406;-86
2022/08/22 06:43:51;;;;;;;70.43;7.87;;;19.80;76.20;;;;;;5079442;28;20432;-85
2022/08/22 06:46:20;;;;;;;72.80;8.57;;;19.90;73.30;;;;;;5079549;28;20809;-85
2022/08/22 06:48:46;;;;;;;69.23;9.00;;;19.80;73.70;;;;;;5079962;28;20479;-85
2022/08/22 06:51:15;;;;;;;75.20;11.50;;;19.80;73.10;;;;;;5080332;28;20406;-85
2022/08/22 06:53:52;;;;;;;68.90;8.57;;;19.80;71.90;;;;;;5082300;28;20396;-84
2022/08/22 06:56:30;;;;;;;75.20;10.80;;;19.80;71.20;;;;;;5068460;28;20472;-84
2022/08/22 06:58:59;;;;;;;72.43;8.53;;;19.70;69.90;;;;;;5068898;28;20447;-84
2022/08/22 07:01:49;;;;;;;74.47;10.80;;;19.70;72.20;;;;;;5066867;28;20421;-84
2022/08/22 07:04:17;;;;;;;71.43;10.60;;;19.70;69.10;;;;;;5067361;28;20422;-83
2022/08/22 07:06:49;;;;;;;71.07;9.97;;;19.70;70.70;;;;;;5067814;28;20956;-84
2022/08/22 07:09:39;;;;;;;71.13;9.53;;;19.80;69.20;;;;;;5068223;28;20834;-83
2022/08/22 07:12:30;;;;;;;80.37;13.50;;;19.80;66.60;;;;;;5086995;28;20406;-84
2022/08/22 07:15:17;;;;;;;74.33;11.57;;;19.80;62.50;;;;;;5077698;28;20471;-84
2022/08/22 07:17:49;;;;;;;70.90;10.60;;;19.90;62.60;;;;;;5085504;28;20913;-83
2022/08/22 07:20:26;;;;;;;71.73;9.97;;;19.90;61.40;;;;;;5085896;28;20415;-84
2022/08/22 07:23:01;;;;;;;71.57;10.90;;;19.90;61.30;;;;;;5084753;28;20408;-84
2022/08/22 07:25:28;;;;;;;74.70;12.47;;;20.00;59.70;;;;;;5085204;28;20492;-84
2022/08/22 07:28:25;;;;;;;74.20;10.33;;;20.00;59.70;;;;;;5067191;28;20427;-84
2022/08/22 07:31:08;;;;;;;69.47;9.13;;;20.10;59.20;;;;;;5084905;28;20402;-84
2022/08/22 07:33:42;;;;;;;72.67;9.60;;;20.20;58.00;;;;;;5085735;28;20386;-84
2022/08/22 07:36:32;;;;;;;73.43;10.07;;;20.30;52.30;;;;;;5085468;28;20505;-84
2022/08/22 07:39:26;;;;;;;73.03;10.13;;;20.30;52.10;;;;;;5085377;28;20383;-84
2022/08/22 07:42:01;;;;;;;70.60;8.37;;;20.40;50.20;;;;;;5068137;28;20422;-84
2022/08/22 07:44:34;;;;;;;73.03;8.30;;;20.40;50.30;;;;;;5067507;28;20418;-84
2022/08/22 07:47:09;;;;;;;70.93;7.30;;;20.50;48.70;;;;;;5067866;28;20423;-84
2022/08/22 07:49:50;;;;;;;69.00;7.43;;;20.50;43.10;;;;;;5087041;28;20437;-84
2022/08/22 07:52:16;;;;;;;76.10;7.97;;;20.60;44.10;;;;;;5084415;28;20447;-84
2022/08/22 07:54:50;;;;;;;73.37;8.63;;;20.70;44.30;;;;;;5084254;28;20394;-85
2022/08/22 07:57:21;;;;;;;68.07;7.83;;;20.80;44.20;;;;;;5065810;28;20433;-84
2022/08/22 07:59:51;;;;;;;72.10;7.53;;;21.00;38.80;;;;;;5084717;28;20389;-85
2022/08/22 08:02:19;;;;;;;68.70;6.03;;;21.00;34.50;;;;;;5084602;28;20473;-84
2022/08/22 08:04:48;;;;;;;72.07;7.20;;;21.10;35.90;;;;;;5066158;28;20429;-84
2022/08/22 08:07:16;;;;;;;70.20;6.10;;;21.10;35.10;;;;;;5066065;28;20436;-85
2022/08/22 08:09:51;;;;;;;71.97;6.40;;;21.20;31.50;;;;;;5063254;28;20449;-85
2022/08/22 08:12:24;;;;;;;72.20;8.10;;;21.20;31.30;;;;;;5082715;28;20775;-84
2022/08/22 08:14:55;;;;;;;69.80;6.40;;;21.30;32.40;;;;;;5063816;28;20412;-84
2022/08/22 08:17:27;;;;;;;69.40;5.27;;;21.30;29.20;;;;;;5063863;28;20805;-85
2022/08/22 08:19:54;;;;;;;70.20;6.27;;;21.40;25.90;;;;;;5063706;28;20437;-84
2022/08/22 08:22:24;;;;;;;73.00;6.30;;;21.50;24.00;;;;;;5081766;28;20409;-84
2022/08/22 08:24:52;;;;;;;75.70;5.13;;;21.60;21.80;;;;;;5082882;28;20401;-84
2022/08/22 08:30:07;;;;;;;69.37;4.23;;;21.60;22.60;;;;;;5243844;23;20532;-84
2022/08/22 08:32:37;;;;;;;67.33;4.43;;;21.70;14.90;;;;;;5081553;28;20442;-85
2022/08/22 08:35:25;;;;;;;71.37;4.90;;;21.80;17.40;;;;;;5081534;28;20383;-84
2022/08/22 08:38:20;;;;;;;72.93;4.67;;;22.00;16.90;;;;;;5081243;28;20457;-85
2022/08/22 08:41:08;;;;;;;68.03;4.03;;;22.20;15.10;;;;;;5079742;28;20407;-85
2022/08/22 08:43:39;;;;;;;68.90;4.03;;;22.30;12.40;;;;;;5081925;28;20465;-85
2022/08/22 08:46:32;;;;;;;72.67;4.50;;;22.50;11.70;;;;;;5064244;28;20405;-85
2022/08/22 08:49:04;;;;;;;72.07;3.73;;;22.70;7.10;;;;;;5064817;28;20442;-84
2022/08/22 08:51:49;;;;;;;71.73;5.33;;;22.90;1.00;;;;;;5064234;28;20424;-85
2022/08/22 08:54:26;;;;;;;69.40;4.00;;;23.20;1.00;;;;;;5062277;28;20398;-84
2022/08/22 08:57:05;;;;;;;68.93;3.60;;;23.30;1.00;;;;;;5081132;28;20418;-85
2022/08/22 09:00:13;;;;;;;69.10;4.20;;;23.50;1.00;;;;;;5080929;28;20885;-85
2022/08/22 09:02:54;;;;;;;72.33;3.57;;;23.70;1.00;;;;;;5059563;28;20403;-85
2022/08/22 09:06:01;;;;;;;73.33;4.00;;;24.00;1.00;;;;;;5081136;28;20973;-84
2022/08/22 09:08:48;;;;;;;72.10;4.97;;;24.10;1.00;;;;;;5063009;28;20624;-85
2022/08/22 09:12:01;;;;;;;69.33;4.63;;;24.00;1.00;;;;;;5080945;28;20908;-82
2022/08/22 09:14:49;;;;;;;68.90;5.70;;;24.40;1.00;;;;;;5046873;28;20406;-84
2022/08/22 09:17:29;;;;;;;68.40;5.40;;;24.40;1.00;;;;;;5080337;28;20414;-85
2022/08/22 09:20:24;;;;;;;68.57;4.13;;;24.70;1.00;;;;;;5080760;28;20402;-85
2022/08/22 09:22:52;;;;;;;67.67;3.30;;;24.70;1.00;;;;;;5061319;28;20417;-85
2022/08/22 09:25:21;;;;;;;68.93;3.70;;;24.50;1.00;;;;;;5062599;28;20436;-85
2022/08/22 09:28:12;;;;;;;67.80;3.67;;;24.40;1.00;;;;;;5079867;28;20430;-85
2022/08/22 09:31:01;;;;;;;68.10;2.93;;;24.30;1.00;;;;;;5061539;28;20828;-83
2022/08/22 09:33:55;;;;;;;66.40;2.90;;;24.30;1.00;;;;;;5131661;22;20486;-83
2022/08/22 09:36:30;;;;;;;67.00;3.20;;;24.40;1.00;;;;;;5079267;28;20444;-83
2022/08/22 09:39:32;;;;;;;68.80;3.20;;;24.50;1.00;;;;;;5080004;28;20379;-83
2022/08/22 09:42:15;;;;;;;67.53;2.90;;;24.40;1.00;;;;;;5069258;28;20465;-82
2022/08/22 09:45:18;;;;;;;70.27;3.70;;;24.40;1.00;;;;;;5078057;28;20395;-82
2022/08/22 09:47:49;;;;;;;67.13;3.00;;;24.50;1.00;;;;;;5060060;28;20994;-82
2022/08/22 09:50:23;;;;;;;68.30;4.00;;;24.40;1.00;;;;;;5077879;28;20774;-82
2022/08/22 09:53:04;;;;;;;68.67;3.30;;;24.40;1.00;;;;;;5077412;28;20387;-82
2022/08/22 09:56:14;;;;;;;70.90;3.33;;;24.40;1.00;;;;;;5077667;28;20374;-81
2022/08/22 09:59:15;;;;;;;68.30;3.80;;;24.40;1.00;;;;;;5064618;28;20421;-82
2022/08/22 10:01:58;;;;;;;67.43;2.90;;;24.40;1.00;;;;;;5064659;28;20422;-82
2022/08/22 10:04:56;;;;;;;68.77;3.70;;;24.40;1.00;;;;;;5081431;28;20367;-81
2022/08/22 10:07:43;;;;;;;66.70;3.40;;;24.50;1.00;;;;;;5077576;28;20425;-82
2022/08/22 10:10:27;;;;;;;70.00;3.00;;;24.50;1.00;;;;;;5078302;28;20426;-82
2022/08/22 10:13:10;;;;;;;68.20;3.10;;;24.70;1.00;;;;;;5077799;28;20473;-82
2022/08/22 10:15:48;;;;;;;66.47;3.23;;;25.00;1.00;;;;;;5077455;28;20466;-82
2022/08/22 10:18:33;;;;;;;70.30;4.37;;;25.20;1.00;;;;;;5078038;28;20484;-82
2022/08/22 10:21:23;;;;;;;69.80;4.40;;;25.50;1.00;;;;;;5058754;28;20412;-81
2022/08/22 10:24:00;;;;;;;66.17;2.90;;;25.90;1.00;;;;;;5077573;28;20388;-82
2022/08/22 10:27:02;;;;;;;72.13;2.73;;;25.90;1.00;;;;;;5076759;28;20433;-81
2022/08/22 10:30:19;;;;;;;69.97;2.87;;;26.20;1.00;;;;;;5077169;28;20470;-82
2022/08/22 10:33:09;;;;;;;68.10;3.37;;;26.60;1.00;;;;;;5073588;28;20478;-82
2022/08/22 10:36:02;;;;;;;66.90;3.40;;;26.70;1.00;;;;;;5077204;28;20481;-82
2022/08/22 10:38:50;;;;;;;68.80;4.10;;;26.40;1.00;;;;;;5078666;28;20384;-82
2022/08/22 10:41:37;;;;;;;68.77;2.93;;;26.60;1.00;;;;;;5058457;28;20402;-82
2022/08/22 10:44:17;;;;;;;69.63;4.23;;;26.60;1.00;;;;;;5058599;28;20451;-82
2022/08/22 10:46:58;;;;;;;67.50;3.43;;;26.60;1.00;;;;;;5058661;28;20458;-82
2022/08/22 10:49:51;;;;;;;66.67;3.37;;;26.60;1.00;;;;;;5075906;28;20430;-82
2022/08/22 10:52:41;;;;;;;67.17;3.73;;;26.40;1.00;;;;;;5057800;28;20439;-82
2022/08/22 10:55:20;;;;;;;66.17;3.03;;;26.50;1.00;;;;;;5058176;28;20428;-82
2022/08/22 10:57:52;;;;;;;68.10;4.00;;;26.90;1.00;;;;;;5058488;28;20455;-83
2022/08/22 11:00:42;;;;;;;67.53;3.07;;;27.10;1.00;;;;;;5078178;28;20391;-84
2022/08/22 11:03:27;;;;;;;69.73;2.87;;;27.40;1.00;;;;;;5078504;28;20896;-83
2022/08/22 11:05:59;;;;;;;67.10;2.70;;;27.20;1.00;;;;;;5079134;28;20432;-83
2022/08/22 11:08:49;;;;;;;66.80;2.90;;;27.50;1.00;;;;;;5060155;28;20434;-83
2022/08/22 11:11:42;;;;;;;68.23;2.77;;;27.60;1.00;;;;;;5059884;28;21058;-82
2022/08/22 11:14:32;;;;;;;70.93;3.20;;;27.90;1.00;;;;;;5060435;28;20413;-82
2022/08/22 11:17:02;;;;;;;68.47;3.43;;;28.10;1.00;;;;;;5079332;28;20490;-83
2022/08/22 11:19:49;;;;;;;66.40;3.00;;;28.50;1.00;;;;;;5078468;28;20387;-82
2022/08/22 11:22:29;;;;;;;68.40;4.17;;;28.50;1.00;;;;;;5076807;28;20464;-83
2022/08/22 11:25:25;;;;;;;69.70;4.30;;;28.60;1.00;;;;;;5077984;28;20390;-83
2022/08/22 11:28:22;;;;;;;66.60;2.50;;;28.50;1.00;;;;;;5077792;28;20422;-83
2022/08/22 11:31:21;;;;;;;70.07;3.20;;;28.50;1.00;;;;;;5077445;28;20448;-83
2022/08/22 11:34:13;;;;;;;68.47;2.80;;;28.40;1.00;;;;;;5059354;28;20491;-83
2022/08/22 11:37:03;;;;;;;69.60;3.03;;;28.20;1.00;;;;;;5059907;28;20418;-83
2022/08/22 11:40:10;;;;;;;69.10;3.33;;;27.90;1.00;;;;;;5059948;28;20391;-83
2022/08/22 11:42:44;;;;;;;69.03;3.53;;;27.70;1.00;;;;;;5018747;28;20470;-83
2022/08/22 11:45:18;;;;;;;67.37;2.63;;;28.00;1.00;;;;;;5019349;28;20392;-83
2022/08/22 11:47:59;;;;;;;68.40;2.50;;;28.60;1.00;;;;;;5055649;28;20827;-83
2022/08/22 11:50:39;;;;;;;69.13;2.63;;;28.90;1.00;;;;;;5081363;28;20426;-83
2022/08/22 11:53:17;;;;;;;69.03;2.87;;;28.90;1.00;;;;;;5064536;28;20393;-82
2022/08/22 11:55:55;;;;;;;66.60;2.80;;;28.70;1.00;;;;;;5064930;28;20387;-82
2022/08/22 11:58:33;;;;;;;68.83;3.00;;;28.50;1.00;;;;;;5080975;28;20802;-83
2022/08/22 12:01:15;;;;;;;66.20;2.40;;;28.30;1.00;;;;;;5080493;28;20822;-83
2022/08/22 12:04:00;;;;;;;67.37;2.57;;;28.30;1.00;;;;;;5080632;28;20387;-84
2022/08/22 12:06:47;;;;;;;70.83;3.53;;;28.40;1.00;;;;;;5083192;28;20773;-83
2022/08/22 12:09:31;;;;;;;67.57;3.20;;;28.40;1.00;;;;;;5081286;28;20442;-81
2022/08/22 12:12:12;;;;;;;70.87;2.93;;;28.10;1.00;;;;;;5080897;28;20398;-81
2022/08/22 12:15:09;;;;;;;67.30;2.67;;;28.10;1.00;;;;;;5081515;28;20374;-81
2022/08/22 12:17:55;;;;;;;70.20;3.17;;;28.40;1.00;;;;;;5057164;28;20869;-80
2022/08/22 12:20:58;;;;;;;75.63;3.40;;;28.50;1.00;;;;;;5082606;28;20450;-80
2022/08/22 12:23:42;;;;;;;68.67;3.33;;;28.50;1.00;;;;;;5081118;28;20394;-81
2022/08/22 12:26:31;;;;;;;67.37;3.30;;;28.20;1.00;;;;;;5063174;28;20479;-81
2022/08/22 12:29:12;;;;;;;71.10;3.10;;;28.40;1.00;;;;;;5081213;28;20430;-81
2022/08/22 12:32:00;;;;;;;68.40;3.20;;;28.70;1.00;;;;;;5062568;28;20931;-81
2022/08/22 12:34:50;;;;;;;72.00;3.10;;;28.80;1.00;;;;;;5062727;28;20461;-81
2022/08/22 12:37:59;;;;;;;69.60;3.00;;;28.90;1.00;;;;;;5079790;28;20487;-81
2022/08/22 12:40:40;;;;;;;73.30;3.20;;;28.90;1.00;;;;;;5060023;28;20410;-81
2022/08/22 12:43:26;;;;;;;69.30;3.30;;;29.10;1.00;;;;;;5080139;28;20425;-81
2022/08/22 12:46:30;;;;;;;69.20;3.37;;;29.10;1.00;;;;;;5080513;28;20382;-81
2022/08/22 12:48:59;;;;;;;71.97;3.57;;;29.10;1.00;;;;;;5080032;28;20442;-81
2022/08/22 12:51:33;;;;;;;70.53;3.60;;;29.20;1.00;;;;;;5079586;28;20394;-81
2022/08/22 12:54:05;;;;;;;69.40;2.93;;;29.30;1.00;;;;;;5080294;28;20741;-81
2022/08/22 12:56:41;;;;;;;69.07;3.40;;;29.20;1.00;;;;;;5061354;28;20426;-81
2022/08/22 12:59:18;;;;;;;69.30;3.07;;;29.10;1.00;;;;;;5079091;28;20383;-81
2022/08/22 13:01:46;;;;;;;67.43;2.87;;;29.10;1.00;;;;;;5079305;28;20389;-81
2022/08/22 13:04:22;;;;;;;69.30;3.00;;;28.80;1.00;;;;;;5078619;28;20773;-81
2022/08/22 13:07:11;;;;;;;74.47;4.00;;;28.80;1.00;;;;;;5078141;28;20571;-80
2022/08/22 13:09:40;;;;;;;69.03;3.00;;;29.00;1.00;;;;;;5067345;28;20460;-80
2022/08/22 13:12:36;;;;;;;77.90;3.40;;;28.90;1.00;;;;;;5078409;28;20476;-80
2022/08/22 13:15:27;;;;;;;70.20;3.27;;;29.00;1.00;;;;;;5078067;28;20406;-81
2022/08/22 13:17:54;;;;;;;68.93;3.37;;;28.80;1.00;;;;;;5061033;28;20433;-80
2022/08/22 13:20:28;;;;;;;69.80;2.90;;;29.00;1.00;;;;;;5060577;28;20408;-80
2022/08/22 13:22:57;;;;;;;67.67;3.03;;;29.20;1.00;;;;;;5060697;28;20441;-80
2022/08/22 13:25:25;;;;;;;67.43;2.63;;;29.30;1.00;;;;;;5078918;28;20456;-80
2022/08/22 13:28:02;;;;;;;67.13;2.47;;;29.50;1.00;;;;;;5078536;28;20831;-80
2022/08/22 13:30:38;;;;;;;71.03;3.20;;;29.60;1.00;;;;;;5078266;28;20430;-80
2022/08/22 13:33:12;;;;;;;68.80;2.80;;;29.60;1.00;;;;;;5077994;28;20414;-80
2022/08/22 13:35:43;;;;;;;69.50;2.80;;;29.70;1.00;;;;;;5077552;28;20440;-81
2022/08/22 13:38:24;;;;;;;69.30;2.83;;;29.80;1.00;;;;;;5060094;28;20465;-80
2022/08/22 13:40:51;;;;;;;66.97;2.70;;;29.80;1.00;;;;;;5077718;28;20379;-80
2022/08/22 13:43:22;;;;;;;68.23;2.63;;;29.90;1.00;;;;;;5078194;28;20854;-81
2022/08/22 13:45:54;;;;;;;68.77;3.37;;;30.00;1.00;;;;;;5079277;28;20417;-80
2022/08/22 13:48:24;;;;;;;69.20;3.03;;;29.90;1.00;;;;;;5078927;28;20877;-80
2022/08/22 13:51:13;;;;;;;67.47;3.33;;;29.40;1.00;;;;;;5060577;28;20897;-80
2022/08/22 13:53:53;;;;;;;68.67;3.00;;;29.40;1.00;;;;;;5061157;28;20476;-80
2022/08/22 13:56:24;;;;;;;67.90;2.63;;;29.10;1.00;;;;;;5078571;28;20414;-80
2022/08/22 13:58:55;;;;;;;69.17;3.70;;;29.00;1.00;;;;;;5078807;28;20385;-80